createdAt,value
2018-08-28T00:02:10.745Z,83.41
2018-08-28T00:04:40.156Z,83.22
2018-08-28T00:07:09.424Z,83.22
2018-08-28T00:09:38.196Z,83.29
2018-08-28T00:12:07.408Z,83.32
2018-08-28T00:14:36.577Z,83.31
2018-08-28T00:17:05.494Z,83.17
2018-08-28T00:19:34.206Z,83.33
2018-08-28T00:22:03.024Z,83.28
2018-08-28T00:24:32.113Z,83.38
2018-08-28T00:27:01.991Z,83.86
2018-08-28T00:29:31.384Z,83.20
2018-08-28T00:32:01.070Z,83.10
2018-08-28T00:34:30.979Z,83.00
2018-08-28T00:37:00.031Z,83.34
2018-08-28T00:39:28.836Z,83.35
2018-08-28T00:41:59.560Z,83.30
2018-08-28T00:44:28.964Z,82.90
2018-08-28T00:46:57.800Z,83.29
2018-08-28T00:49:27.169Z,82.52
2018-08-28T00:51:57.040Z,82.44
2018-08-28T00:54:25.774Z,82.20
2018-08-28T00:56:55.468Z,81.87
2018-08-28T00:59:24.287Z,82.04
2018-08-28T01:01:53.728Z,82.11
2018-08-28T01:04:23.047Z,82.23
2018-08-28T01:06:52.783Z,81.25
2018-08-28T01:09:21.550Z,82.07
2018-08-28T01:11:50.327Z,80.77
2018-08-28T01:14:19.622Z,81.68
2018-08-28T01:16:49.062Z,81.67
2018-08-28T01:19:17.914Z,81.05
2018-08-28T01:21:46.705Z,81.07
2018-08-28T01:24:16.586Z,81.29
2018-08-28T01:26:45.350Z,81.15
2018-08-28T01:29:14.707Z,82.23
2018-08-28T01:31:43.592Z,81.99
2018-08-28T01:34:12.334Z,81.78
2018-08-28T01:36:41.199Z,81.35
2018-08-28T01:39:10.280Z,81.42
2018-08-28T01:41:39.634Z,81.88
2018-08-28T01:44:09.319Z,81.96
2018-08-28T01:46:38.568Z,82.29
2018-08-28T01:49:07.824Z,81.57
2018-08-28T01:51:37.183Z,82.18
2018-08-28T01:54:06.544Z,82.38
2018-08-28T01:56:36.000Z,82.36
2018-08-28T01:59:05.383Z,82.25
2018-08-28T02:01:34.169Z,82.25
2018-08-28T02:04:03.335Z,82.47
2018-08-28T02:06:32.872Z,82.34
2018-08-28T02:09:02.525Z,81.67
2018-08-28T02:11:31.664Z,81.63
2018-08-28T02:14:00.788Z,82.10
2018-08-28T02:16:30.724Z,81.89
2018-08-28T02:19:00.428Z,82.75
2018-08-28T02:21:29.536Z,81.92
2018-08-28T02:23:58.323Z,81.80
2018-08-28T02:26:28.101Z,81.93
2018-08-28T02:28:57.560Z,82.29
2018-08-28T02:31:26.347Z,81.59
2018-08-28T02:33:55.144Z,82.26
2018-08-28T02:36:23.953Z,82.81
2018-08-28T02:38:52.699Z,82.24
2018-08-28T02:41:22.367Z,82.20
2018-08-28T02:43:51.258Z,82.71
2018-08-28T02:46:21.088Z,81.96
2018-08-28T02:48:50.536Z,82.35
2018-08-28T02:51:19.342Z,82.10
2018-08-28T02:53:48.651Z,82.45
2018-08-28T02:56:18.371Z,82.85
2018-08-28T02:58:47.667Z,83.22
2018-08-28T03:01:16.441Z,83.39
2018-08-28T03:03:45.184Z,82.41
2018-08-28T03:06:14.592Z,83.37
2018-08-28T03:08:43.383Z,83.17
2018-08-28T03:11:12.186Z,82.40
2018-08-28T03:13:41.009Z,83.11
2018-08-28T03:16:10.331Z,82.83
2018-08-28T03:18:39.918Z,82.76
2018-08-28T03:21:08.755Z,82.33
2018-08-28T03:23:38.040Z,82.36
2018-08-28T03:26:07.706Z,83.06
2018-08-28T03:28:36.452Z,82.71
2018-08-28T03:31:05.333Z,82.47
2018-08-28T03:33:34.140Z,82.65
2018-08-28T03:36:03.075Z,82.62
2018-08-28T03:38:32.323Z,83.33
2018-08-28T03:41:02.189Z,82.93
2018-08-28T03:43:31.355Z,83.40
2018-08-28T03:46:00.383Z,83.50
2018-08-28T03:48:29.943Z,83.29
2018-08-28T03:50:59.624Z,83.64
2018-08-28T03:53:29.247Z,82.96
2018-08-28T03:55:58.052Z,83.76
2018-08-28T03:58:27.356Z,83.81
2018-08-28T04:00:56.152Z,84.36
2018-08-28T04:03:25.079Z,84.03
2018-08-28T04:05:54.584Z,84.38
2018-08-28T04:08:25.269Z,84.13
2018-08-28T04:10:54.036Z,83.93
2018-08-28T04:13:22.941Z,84.28
2018-08-28T04:15:52.343Z,83.75
2018-08-28T04:18:21.785Z,84.14
2018-08-28T04:20:50.584Z,84.45
2018-08-28T04:23:20.011Z,83.47
2018-08-28T04:25:48.781Z,83.60
2018-08-28T04:28:17.620Z,84.71
2018-08-28T04:30:46.454Z,84.01
2018-08-28T04:33:15.295Z,83.30
2018-08-28T04:35:44.172Z,83.37
2018-08-28T04:38:13.039Z,83.35
2018-08-28T04:40:42.896Z,82.68
2018-08-28T04:43:11.721Z,82.42
2018-08-28T04:45:40.557Z,82.10
2018-08-28T04:48:10.235Z,82.92
2018-08-28T04:50:39.657Z,82.88
2018-08-28T04:53:08.957Z,82.52
2018-08-28T04:55:37.713Z,82.60
2018-08-28T04:58:07.307Z,82.47
2018-08-28T05:00:36.111Z,82.32
2018-08-28T05:03:05.092Z,82.17
2018-08-28T05:05:33.882Z,82.28
2018-08-28T05:08:03.483Z,83.00
2018-08-28T05:10:32.567Z,82.13
2018-08-28T05:13:02.005Z,81.93
2018-08-28T05:15:32.560Z,82.13
2018-08-28T05:18:03.596Z,82.09
2018-08-28T05:20:32.901Z,82.36
2018-08-28T05:23:02.053Z,81.84
2018-08-28T05:25:31.071Z,82.38
2018-08-28T05:28:00.221Z,81.78
2018-08-28T05:30:29.304Z,81.39
2018-08-28T05:32:58.263Z,81.15
2018-08-28T05:35:27.112Z,80.34
2018-08-28T05:37:56.008Z,81.15
2018-08-28T05:40:24.770Z,80.31
2018-08-28T05:42:54.025Z,79.79
2018-08-28T05:45:22.775Z,80.57
2018-08-28T05:47:52.158Z,81.10
2018-08-28T05:50:21.608Z,81.20
2018-08-28T05:52:51.608Z,80.72
2018-08-28T05:55:20.382Z,80.69
2018-08-28T05:57:49.564Z,80.16
2018-08-28T06:00:18.368Z,80.88
2018-08-28T06:02:47.173Z,81.12
2018-08-28T06:05:16.645Z,80.58
2018-08-28T06:07:46.260Z,79.95
2018-08-28T06:10:15.043Z,80.08
2018-08-28T06:12:43.848Z,80.67
2018-08-28T06:15:13.260Z,80.10
2018-08-28T06:17:42.566Z,80.04
2018-08-28T06:20:11.407Z,79.73
2018-08-28T06:22:40.182Z,80.13
2018-08-28T06:25:09.020Z,79.10
2018-08-28T06:27:37.760Z,79.45
2018-08-28T06:30:06.787Z,79.26
2018-08-28T06:32:35.576Z,79.60
2018-08-28T06:35:06.173Z,78.46
2018-08-28T06:37:34.932Z,79.35
2018-08-28T06:40:03.801Z,78.46
2018-08-28T06:42:33.293Z,77.97
2018-08-28T06:45:03.100Z,77.86
2018-08-28T06:47:33.117Z,77.61
2018-08-28T06:50:03.620Z,77.39
2018-08-28T06:52:32.920Z,77.23
2018-08-28T06:55:01.983Z,76.49
2018-08-28T06:57:31.700Z,76.71
2018-08-28T07:00:01.606Z,75.55
2018-08-28T07:02:30.703Z,76.45
2018-08-28T07:05:00.997Z,75.10
2018-08-28T07:07:30.787Z,75.34
2018-08-28T07:10:00.075Z,75.33
2018-08-28T07:12:28.917Z,75.69
2018-08-28T07:14:58.793Z,75.16
2018-08-28T07:17:28.075Z,73.94
2018-08-28T07:19:56.928Z,72.75
2018-08-28T07:22:26.656Z,71.95
2018-08-28T07:24:55.466Z,71.44
2018-08-28T07:27:24.344Z,71.26
2018-08-28T07:29:53.285Z,70.48
2018-08-28T07:32:22.214Z,70.14
2018-08-28T07:34:51.024Z,71.06
2018-08-28T07:37:19.842Z,71.07
2018-08-28T07:39:48.697Z,71.21
2018-08-28T07:42:20.216Z,70.96
2018-08-28T07:44:49.031Z,71.16
2018-08-28T07:47:18.539Z,70.93
2018-08-28T07:49:49.595Z,71.16
2018-08-28T07:52:19.247Z,71.26
2018-08-28T07:54:48.052Z,72.47
2018-08-28T07:57:17.820Z,71.77
2018-08-28T07:59:46.610Z,72.24
2018-08-28T08:02:15.811Z,71.65
2018-08-28T08:04:44.635Z,72.13
2018-08-28T08:07:14.433Z,70.53
2018-08-28T08:09:43.220Z,71.26
2018-08-28T08:12:12.429Z,71.72
2018-08-28T08:14:41.956Z,70.93
2018-08-28T08:17:11.464Z,71.48
2018-08-28T08:19:40.308Z,71.75
2018-08-28T08:22:09.213Z,70.49
2018-08-28T08:24:38.080Z,71.10
2018-08-28T08:27:06.956Z,69.97
2018-08-28T08:29:35.863Z,70.79
2018-08-28T08:32:04.766Z,70.92
2018-08-28T08:34:33.543Z,69.48
2018-08-28T08:37:02.803Z,70.22
2018-08-28T08:39:31.940Z,69.96
2018-08-28T08:42:02.009Z,69.47
2018-08-28T08:44:31.089Z,68.08
2018-08-28T08:47:01.040Z,66.93
2018-08-28T08:49:30.943Z,66.01
2018-08-28T08:52:00.693Z,66.11
2018-08-28T08:54:29.871Z,66.43
2018-08-28T08:56:59.662Z,65.58
2018-08-28T08:59:28.540Z,64.67
2018-08-28T09:01:57.369Z,64.62
2018-08-28T09:04:26.189Z,63.74
2018-08-28T09:07:26.685Z,64.25
2018-08-28T09:09:55.503Z,62.82
2018-08-28T09:12:24.909Z,61.51
2018-08-28T09:14:54.265Z,60.68
2018-08-28T09:17:24.401Z,61.41
2018-08-28T09:19:53.291Z,61.30
2018-08-28T09:22:22.060Z,61.47
2018-08-28T09:24:50.924Z,60.67
2018-08-28T09:27:19.747Z,60.99
2018-08-28T09:29:48.788Z,60.32
2018-08-28T09:32:17.722Z,61.10
2018-08-28T09:34:46.493Z,61.31
2018-08-28T09:37:15.263Z,61.45
2018-08-28T09:39:44.128Z,60.35
2018-08-28T09:42:13.741Z,60.78
2018-08-28T09:44:42.543Z,59.81
2018-08-28T09:47:11.999Z,58.58
2018-08-28T09:49:41.280Z,59.11
2018-08-28T09:52:12.196Z,59.66
2018-08-28T09:54:41.418Z,57.55
2018-08-28T09:57:11.002Z,58.77
2018-08-28T09:59:39.768Z,58.31
2018-08-28T10:02:08.662Z,58.05
2018-08-28T10:04:37.556Z,57.88
2018-08-28T10:07:07.224Z,57.39
2018-08-28T10:09:37.282Z,57.80
2018-08-28T10:12:06.092Z,57.42
2018-08-28T10:14:35.049Z,58.64
2018-08-28T10:17:04.459Z,58.80
2018-08-28T10:19:33.381Z,59.26
2018-08-28T10:22:02.291Z,59.90
2018-08-28T10:24:31.393Z,59.86
2018-08-28T10:27:00.636Z,59.81
2018-08-28T10:29:29.838Z,60.23
2018-08-28T10:31:58.689Z,60.53
2018-08-28T10:34:27.514Z,60.09
2018-08-28T10:36:56.307Z,59.88
2018-08-28T10:39:25.132Z,60.20
2018-08-28T10:42:25.166Z,60.18
2018-08-28T10:44:53.936Z,59.94
2018-08-28T10:47:23.600Z,60.22
2018-08-28T10:49:53.170Z,60.56
2018-08-28T10:52:22.876Z,60.93
2018-08-28T10:54:52.450Z,60.32
2018-08-28T10:57:21.714Z,60.64
2018-08-28T10:59:50.966Z,60.80
2018-08-28T11:02:19.732Z,58.13
2018-08-28T11:04:48.857Z,57.73
2018-08-28T11:07:18.516Z,57.88
2018-08-28T11:09:47.387Z,57.70
2018-08-28T11:12:16.207Z,55.78
2018-08-28T11:14:45.858Z,55.87
2018-08-28T11:17:15.412Z,56.32
2018-08-28T11:19:44.518Z,55.27
2018-08-28T11:22:13.318Z,55.98
2018-08-28T11:24:42.195Z,54.75
2018-08-28T11:27:11.020Z,55.43
2018-08-28T11:29:39.924Z,55.04
2018-08-28T11:32:08.775Z,52.99
2018-08-28T11:34:37.644Z,53.28
2018-08-28T11:37:06.537Z,53.12
2018-08-28T11:39:35.452Z,53.68
2018-08-28T11:42:05.110Z,54.59
2018-08-28T11:44:33.988Z,54.54
2018-08-28T11:47:03.255Z,54.71
2018-08-28T11:49:32.687Z,53.98
2018-08-28T11:52:02.546Z,53.99
2018-08-28T11:54:31.596Z,53.23
2018-08-28T11:57:01.454Z,53.03
2018-08-28T11:59:30.605Z,53.70
2018-08-28T12:01:59.667Z,54.17
2018-08-28T12:04:29.567Z,54.02
2018-08-28T12:06:59.696Z,54.03
2018-08-28T12:09:28.534Z,55.38
2018-08-28T12:11:57.407Z,54.00
2018-08-28T12:14:26.251Z,54.26
2018-08-28T12:16:55.537Z,54.41
2018-08-28T12:19:24.338Z,53.61
2018-08-28T12:21:53.173Z,55.26
2018-08-28T12:24:22.056Z,54.65
2018-08-28T12:26:51.886Z,54.26
2018-08-28T12:29:20.798Z,54.69
2018-08-28T12:31:49.643Z,53.59
2018-08-28T12:34:22.401Z,53.38
2018-08-28T12:36:51.370Z,54.09
2018-08-28T12:39:20.154Z,53.33
2018-08-28T12:41:49.843Z,52.25
2018-08-28T12:44:18.664Z,52.78
2018-08-28T12:46:48.381Z,52.13
2018-08-28T12:49:17.865Z,51.46
2018-08-28T12:51:47.262Z,52.01
2018-08-28T12:54:16.087Z,51.70
2018-08-28T12:56:45.724Z,50.63
2018-08-28T12:59:14.580Z,49.52
2018-08-28T13:01:44.044Z,48.80
2018-08-28T13:04:13.444Z,47.96
2018-08-28T13:06:42.791Z,48.18
2018-08-28T13:09:11.632Z,47.98
2018-08-28T13:11:40.515Z,47.73
2018-08-28T13:14:09.726Z,48.75
2018-08-28T13:16:39.276Z,49.50
2018-08-28T13:19:08.050Z,49.09
2018-08-28T13:21:37.077Z,50.17
2018-08-28T13:24:06.008Z,50.97
2018-08-28T13:26:34.890Z,50.56
2018-08-28T13:32:06.799Z,51.54
2018-08-28T13:34:35.662Z,50.88
2018-08-28T13:37:04.688Z,51.36
2018-08-28T13:39:33.496Z,50.42
2018-08-28T13:42:03.056Z,50.54
2018-08-28T13:44:32.323Z,51.82
2018-08-28T13:47:01.859Z,51.84
2018-08-28T13:49:31.699Z,51.08
2018-08-28T13:52:02.231Z,52.83
2018-08-28T13:54:31.277Z,53.04
2018-08-28T13:57:01.143Z,52.84
2018-08-28T13:59:30.976Z,52.80
2018-08-28T14:02:01.489Z,53.62
2018-08-28T14:04:30.626Z,53.34
2018-08-28T14:07:00.247Z,54.57
2018-08-28T14:09:29.144Z,54.69
2018-08-28T14:11:57.950Z,53.68
2018-08-28T14:14:26.761Z,53.56
2018-08-28T14:16:55.833Z,53.46
2018-08-28T14:19:24.789Z,52.68
2018-08-28T14:21:53.815Z,52.41
2018-08-28T14:24:23.248Z,52.04
2018-08-28T14:26:52.159Z,52.23
2018-08-28T14:29:21.166Z,50.74
2018-08-28T14:31:50.494Z,51.22
2018-08-28T14:34:19.962Z,50.81
2018-08-28T14:36:48.849Z,51.00
2018-08-28T14:39:17.631Z,50.74
2018-08-28T14:41:47.702Z,50.69
2018-08-28T14:44:16.575Z,51.14
2018-08-28T14:46:45.664Z,50.68
2018-08-28T14:49:15.265Z,51.46
2018-08-28T14:51:44.649Z,50.37
2018-08-28T14:54:13.451Z,51.76
2018-08-28T14:56:43.354Z,51.92
2018-08-28T14:59:12.333Z,51.91
2018-08-28T15:01:48.726Z,51.80
2018-08-28T15:04:17.633Z,51.14
2018-08-28T15:06:47.320Z,50.81
2018-08-28T15:09:16.701Z,50.13
2018-08-28T15:11:46.007Z,49.05
2018-08-28T15:14:14.867Z,49.44
2018-08-28T15:16:43.845Z,50.29
2018-08-28T15:19:12.999Z,50.06
2018-08-28T15:21:42.217Z,50.25
2018-08-28T15:24:11.933Z,51.06
2018-08-28T15:26:41.397Z,50.35
2018-08-28T15:29:10.450Z,49.67
2018-08-28T15:31:40.537Z,51.18
2018-08-28T15:34:10.272Z,49.90
2018-08-28T15:36:39.062Z,49.63
2018-08-28T15:39:08.592Z,49.90
2018-08-28T15:41:37.868Z,49.59
2018-08-28T15:44:06.676Z,50.17
2018-08-28T15:46:35.498Z,49.78
2018-08-28T15:49:05.740Z,50.92
2018-08-28T15:51:35.118Z,51.29
2018-08-28T15:54:04.457Z,50.78
2018-08-28T15:56:33.944Z,51.28
2018-08-28T15:59:02.905Z,51.00
2018-08-28T16:01:32.073Z,51.78
2018-08-28T16:04:01.508Z,51.92
2018-08-28T16:06:31.616Z,52.12
2018-08-28T16:09:00.906Z,53.34
2018-08-28T16:11:30.053Z,53.36
2018-08-28T16:13:59.217Z,54.74
2018-08-28T16:16:28.116Z,54.48
2018-08-28T16:18:58.653Z,55.56
2018-08-28T16:21:33.440Z,55.02
2018-08-28T16:24:02.804Z,54.88
2018-08-28T16:26:32.051Z,55.16
2018-08-28T16:29:01.177Z,54.85
2018-08-28T16:31:31.020Z,55.28
2018-08-28T16:34:01.061Z,55.90
2018-08-28T16:36:30.440Z,56.57
2018-08-28T16:39:00.362Z,57.02
2018-08-28T16:41:29.882Z,57.21
2018-08-28T16:43:59.717Z,57.43
2018-08-28T16:46:29.480Z,57.68
2018-08-28T16:49:00.243Z,56.96
2018-08-28T16:51:29.987Z,57.21
2018-08-28T16:53:59.883Z,57.67
2018-08-28T16:56:29.851Z,57.46
2018-08-28T16:58:58.797Z,57.09
2018-08-28T17:01:27.637Z,56.99
2018-08-28T17:03:57.049Z,57.32
2018-08-28T17:06:26.923Z,56.21
2018-08-28T17:08:55.700Z,56.75
2018-08-28T17:11:24.493Z,56.86
2018-08-28T17:13:53.332Z,57.09
2018-08-28T17:16:22.325Z,57.14
2018-08-28T17:18:51.259Z,57.57
2018-08-28T17:21:20.859Z,57.54
2018-08-28T17:23:50.397Z,57.74
2018-08-28T17:26:19.322Z,58.79
2018-08-28T17:28:48.645Z,59.10
2018-08-28T17:31:18.691Z,59.64
2018-08-28T17:33:48.276Z,58.91
2018-08-28T17:36:17.252Z,59.79
2018-08-28T17:38:47.084Z,60.02
2018-08-28T17:41:16.621Z,59.75
2018-08-28T17:43:45.412Z,60.44
2018-08-28T17:46:14.403Z,59.98
2018-08-28T17:48:45.322Z,60.38
2018-08-28T17:51:14.853Z,60.67
2018-08-28T17:53:43.732Z,60.57
2018-08-28T17:56:13.416Z,60.83
2018-08-28T17:58:42.934Z,60.75
2018-08-28T18:01:11.881Z,61.79
2018-08-28T18:03:40.841Z,61.30
2018-08-28T18:06:10.482Z,62.26
2018-08-28T18:11:22.485Z,61.68
2018-08-28T18:13:51.348Z,62.56
2018-08-28T18:16:20.382Z,62.45
2018-08-28T18:18:49.336Z,62.60
2018-08-28T18:21:18.307Z,63.07
2018-08-28T18:23:47.982Z,63.63
2018-08-28T18:26:17.959Z,63.72
2018-08-28T18:28:47.423Z,65.16
2018-08-28T18:31:16.964Z,64.68
2018-08-28T18:33:47.339Z,65.44
2018-08-28T18:36:16.160Z,66.02
2018-08-28T18:38:45.935Z,66.15
2018-08-28T18:41:15.528Z,67.36
2018-08-28T18:43:44.278Z,67.21
2018-08-28T18:46:13.142Z,67.34
2018-08-28T18:48:42.677Z,67.34
2018-08-28T18:51:12.996Z,66.96
2018-08-28T18:53:42.020Z,66.75
2018-08-28T18:58:48.707Z,67.92
2018-08-28T19:01:17.582Z,68.22
2018-08-28T19:03:46.413Z,68.25
2018-08-28T19:06:16.393Z,68.03
2018-08-28T19:08:45.267Z,68.23
2018-08-28T19:11:14.032Z,69.13
2018-08-28T19:13:43.037Z,68.79
2018-08-28T19:16:11.860Z,69.01
2018-08-28T19:18:40.853Z,69.38
2018-08-28T19:21:10.550Z,70.25
2018-08-28T19:23:39.968Z,70.58
2018-08-28T19:26:09.905Z,70.09
2018-08-28T19:28:39.356Z,70.30
2018-08-28T19:31:08.973Z,70.21
2018-08-28T19:33:38.355Z,70.78
2018-08-28T19:36:07.239Z,70.94
2018-08-28T19:38:36.576Z,71.49
2018-08-28T19:41:05.970Z,71.83
2018-08-28T19:43:34.904Z,71.41
2018-08-28T19:46:04.291Z,72.31
2018-08-28T19:48:33.803Z,71.97
2018-08-28T19:51:03.145Z,71.60
2018-08-28T19:53:32.174Z,71.73
2018-08-28T19:56:01.249Z,71.71
2018-08-28T19:58:30.981Z,72.42
2018-08-28T20:01:00.179Z,72.17
2018-08-28T20:03:29.267Z,72.69
2018-08-28T20:05:59.085Z,73.17
2018-08-28T20:08:29.096Z,73.61
2018-08-28T20:10:57.852Z,73.71
2018-08-28T20:13:26.944Z,73.40
2018-08-28T20:15:55.933Z,72.58
2018-08-28T20:18:24.760Z,73.29
2018-08-28T20:20:53.766Z,73.41
2018-08-28T20:23:23.780Z,73.44
2018-08-28T20:25:52.640Z,73.29
2018-08-28T20:28:21.889Z,73.31
2018-08-28T20:30:51.121Z,73.47
2018-08-28T20:33:20.748Z,74.05
2018-08-28T20:35:49.560Z,74.01
2018-08-28T20:38:18.887Z,73.18
2018-08-28T20:40:48.548Z,73.04
2018-08-28T20:43:18.385Z,74.45
2018-08-28T20:45:47.247Z,74.16
2018-08-28T20:48:16.578Z,74.48
2018-08-28T20:50:45.874Z,74.03
2018-08-28T20:53:14.822Z,73.77
2018-08-28T20:55:43.606Z,74.64
2018-08-28T20:58:13.296Z,74.28
2018-08-28T21:00:42.335Z,74.59
2018-08-28T21:03:11.299Z,75.17
2018-08-28T21:05:40.639Z,74.43
2018-08-28T21:08:10.126Z,75.34
2018-08-28T21:10:38.945Z,75.33
2018-08-28T21:13:07.740Z,75.71
2018-08-28T21:15:36.527Z,75.31
2018-08-28T21:18:05.359Z,76.02
2018-08-28T21:20:34.299Z,76.05
2018-08-28T21:23:03.174Z,75.53
2018-08-28T21:25:33.111Z,76.25
2018-08-28T21:28:02.309Z,75.79
2018-08-28T21:30:31.983Z,75.65
2018-08-28T21:33:01.776Z,76.07
2018-08-28T21:35:31.178Z,76.47
2018-08-28T21:38:00.791Z,76.21
2018-08-28T21:40:31.959Z,75.58
2018-08-28T21:43:01.127Z,75.77
2018-08-28T21:45:30.295Z,76.22
2018-08-28T21:48:00.139Z,76.28
2018-08-28T21:50:29.892Z,76.15
2018-08-28T21:52:58.992Z,76.22
2018-08-28T21:55:28.175Z,76.60
2018-08-28T21:57:57.716Z,76.57
2018-08-28T22:00:26.665Z,75.87
2018-08-28T22:02:55.509Z,75.64
2018-08-28T22:05:29.716Z,76.21
2018-08-28T22:08:03.645Z,75.91
2018-08-28T22:10:32.870Z,75.99
2018-08-28T22:13:02.122Z,75.93
2018-08-28T22:15:31.962Z,76.65
2018-08-28T22:18:01.488Z,76.32
2018-08-28T22:20:31.054Z,76.92
2018-08-28T22:23:00.170Z,76.58
2018-08-28T22:25:29.727Z,76.54
2018-08-28T22:28:00.367Z,76.71
2018-08-28T22:30:29.961Z,76.86
2018-08-28T22:32:59.723Z,76.99
2018-08-28T22:35:29.544Z,77.26
2018-08-28T22:37:59.268Z,77.39
2018-08-28T22:40:29.235Z,77.61
2018-08-28T22:42:58.004Z,77.46
2018-08-28T22:45:27.179Z,77.71
2018-08-28T22:47:56.640Z,76.82
2018-08-28T22:50:26.367Z,77.39
2018-08-28T22:52:55.154Z,77.05
2018-08-28T22:55:23.955Z,76.61
2018-08-28T22:57:53.240Z,76.75
2018-08-28T23:00:23.993Z,77.19
2018-08-28T23:02:54.567Z,76.49
2018-08-28T23:05:23.398Z,76.79
2018-08-28T23:07:53.086Z,77.06
2018-08-28T23:10:21.942Z,76.43
2018-08-28T23:12:51.270Z,76.75
2018-08-28T23:15:20.131Z,76.96
2018-08-28T23:17:48.903Z,77.39
2018-08-28T23:20:18.471Z,76.95
2018-08-28T23:22:47.397Z,76.59
2018-08-28T23:25:17.177Z,77.75
2018-08-28T23:27:45.914Z,77.93
2018-08-28T23:30:15.096Z,77.49
2018-08-28T23:32:44.734Z,77.78
2018-08-28T23:35:14.439Z,78.62
2018-08-28T23:37:43.922Z,78.41
2018-08-28T23:40:13.627Z,79.15
2018-08-28T23:42:43.680Z,78.90
2018-08-28T23:45:13.229Z,78.70
2018-08-28T23:47:43.476Z,80.01
2018-08-28T23:50:13.099Z,79.45
2018-08-28T23:52:41.906Z,80.25
2018-08-28T23:55:10.716Z,79.31
2018-08-28T23:57:40.412Z,79.02
